sensor_id;sensor_type;location;lat;lon;timestamp;P1;durP1;ratioP1;P2;durP2;ratioP2
74677;SDS011;63207;56.328;43.994;2022-09-09T00:03:40;1.58;;;1.10;;
74677;SDS011;63207;56.328;43.994;2022-09-09T00:09:15;0.95;;;0.80;;
74677;SDS011;63207;56.328;43.994;2022-09-09T00:11:43;1.10;;;1.00;;
74677;SDS011;63207;56.328;43.994;2022-09-09T00:14:17;1.10;;;0.90;;
74677;SDS011;63207;56.328;43.994;2022-09-09T00:16:58;1.00;;;0.90;;
74677;SDS011;63207;56.328;43.994;2022-09-09T00:19:43;1.20;;;1.10;;
74677;SDS011;63207;56.328;43.994;2022-09-09T00:22:16;1.00;;;0.90;;
74677;SDS011;63207;56.328;43.994;2022-09-09T00:24:46;1.13;;;1.00;;
74677;SDS011;63207;56.328;43.994;2022-09-09T00:29:51;1.17;;;1.00;;
74677;SDS011;63207;56.328;43.994;2022-09-09T00:32:22;1.40;;;1.00;;
74677;SDS011;63207;56.328;43.994;2022-09-09T00:34:56;1.30;;;1.00;;
74677;SDS011;63207;56.328;43.994;2022-09-09T00:37:29;1.23;;;1.00;;
74677;SDS011;63207;56.328;43.994;2022-09-09T00:40:01;1.00;;;0.90;;
74677;SDS011;63207;56.328;43.994;2022-09-09T00:42:53;1.30;;;1.10;;
74677;SDS011;63207;56.328;43.994;2022-09-09T00:48:06;1.20;;;0.98;;
74677;SDS011;63207;56.328;43.994;2022-09-09T00:50:51;1.17;;;1.00;;
74677;SDS011;63207;56.328;43.994;2022-09-09T00:58:22;1.35;;;1.00;;
74677;SDS011;63207;56.328;43.994;2022-09-09T01:01:02;1.42;;;0.90;;
74677;SDS011;63207;56.328;43.994;2022-09-09T01:06:17;1.65;;;1.08;;
74677;SDS011;63207;56.328;43.994;2022-09-09T01:09:00;1.48;;;1.00;;
74677;SDS011;63207;56.328;43.994;2022-09-09T01:14:05;1.40;;;1.10;;
74677;SDS011;63207;56.328;43.994;2022-09-09T01:16:44;1.05;;;0.93;;
74677;SDS011;63207;56.328;43.994;2022-09-09T01:19:15;1.10;;;1.00;;
74677;SDS011;63207;56.328;43.994;2022-09-09T01:21:54;1.20;;;1.00;;
74677;SDS011;63207;56.328;43.994;2022-09-09T01:24:33;1.10;;;0.93;;
74677;SDS011;63207;56.328;43.994;2022-09-09T01:27:40;1.08;;;0.95;;
74677;SDS011;63207;56.328;43.994;2022-09-09T01:30:13;1.23;;;1.10;;
74677;SDS011;63207;56.328;43.994;2022-09-09T01:32:43;1.00;;;0.90;;
74677;SDS011;63207;56.328;43.994;2022-09-09T01:37:49;1.10;;;1.00;;
74677;SDS011;63207;56.328;43.994;2022-09-09T01:40:15;1.23;;;1.05;;
74677;SDS011;63207;56.328;43.994;2022-09-09T01:42:41;1.13;;;0.90;;
74677;SDS011;63207;56.328;43.994;2022-09-09T01:45:25;1.00;;;0.90;;
74677;SDS011;63207;56.328;43.994;2022-09-09T01:47:53;1.60;;;0.98;;
74677;SDS011;63207;56.328;43.994;2022-09-09T01:50:46;1.42;;;1.10;;
74677;SDS011;63207;56.328;43.994;2022-09-09T01:53:12;1.40;;;1.00;;
74677;SDS011;63207;56.328;43.994;2022-09-09T01:55:45;1.50;;;1.00;;
74677;SDS011;63207;56.328;43.994;2022-09-09T02:00:56;1.10;;;1.00;;
74677;SDS011;63207;56.328;43.994;2022-09-09T02:03:32;1.52;;;1.05;;
74677;SDS011;63207;56.328;43.994;2022-09-09T02:06:19;1.25;;;1.00;;
74677;SDS011;63207;56.328;43.994;2022-09-09T02:08:56;1.10;;;0.87;;
74677;SDS011;63207;56.328;43.994;2022-09-09T02:11:24;1.02;;;0.90;;
74677;SDS011;63207;56.328;43.994;2022-09-09T02:14:08;1.30;;;1.10;;
74677;SDS011;63207;56.328;43.994;2022-09-09T02:17:16;1.00;;;0.90;;
74677;SDS011;63207;56.328;43.994;2022-09-09T02:20:05;1.48;;;0.98;;
74677;SDS011;63207;56.328;43.994;2022-09-09T02:22:52;1.35;;;0.93;;
74677;SDS011;63207;56.328;43.994;2022-09-09T02:25:22;1.10;;;1.00;;
74677;SDS011;63207;56.328;43.994;2022-09-09T02:27:54;1.33;;;0.82;;
74677;SDS011;63207;56.328;43.994;2022-09-09T02:30:20;1.27;;;0.95;;
74677;SDS011;63207;56.328;43.994;2022-09-09T02:33:04;1.00;;;0.90;;
74677;SDS011;63207;56.328;43.994;2022-09-09T02:35:51;1.20;;;1.10;;
74677;SDS011;63207;56.328;43.994;2022-09-09T02:38:23;1.00;;;0.82;;
74677;SDS011;63207;56.328;43.994;2022-09-09T02:41:12;0.98;;;0.80;;
74677;SDS011;63207;56.328;43.994;2022-09-09T02:43:39;1.17;;;0.90;;
74677;SDS011;63207;56.328;43.994;2022-09-09T02:49:11;0.85;;;0.80;;
74677;SDS011;63207;56.328;43.994;2022-09-09T02:52:45;1.00;;;0.90;;
74677;SDS011;63207;56.328;43.994;2022-09-09T02:54:44;1.20;;;0.90;;
74677;SDS011;63207;56.328;43.994;2022-09-09T02:57:14;1.10;;;1.00;;
74677;SDS011;63207;56.328;43.994;2022-09-09T02:59:59;1.10;;;0.90;;
74677;SDS011;63207;56.328;43.994;2022-09-09T03:02:29;1.00;;;0.90;;
74677;SDS011;63207;56.328;43.994;2022-09-09T03:05:00;1.15;;;1.00;;
74677;SDS011;63207;56.328;43.994;2022-09-09T03:07:28;1.67;;;1.00;;
74677;SDS011;63207;56.328;43.994;2022-09-09T03:10:12;1.77;;;1.00;;
74677;SDS011;63207;56.328;43.994;2022-09-09T03:12:38;1.35;;;1.00;;
74677;SDS011;63207;56.328;43.994;2022-09-09T03:15:05;1.85;;;1.15;;
74677;SDS011;63207;56.328;43.994;2022-09-09T03:17:31;0.77;;;0.77;;
74677;SDS011;63207;56.328;43.994;2022-09-09T03:19:57;1.20;;;0.93;;
74677;SDS011;63207;56.328;43.994;2022-09-09T03:22:24;1.20;;;1.00;;
74677;SDS011;63207;56.328;43.994;2022-09-09T03:24:56;1.67;;;1.10;;
74677;SDS011;63207;56.328;43.994;2022-09-09T03:27:21;1.00;;;0.80;;
74677;SDS011;63207;56.328;43.994;2022-09-09T03:29:47;0.90;;;0.90;;
74677;SDS011;63207;56.328;43.994;2022-09-09T03:32:19;1.10;;;1.00;;
74677;SDS011;63207;56.328;43.994;2022-09-09T03:34:48;1.10;;;1.00;;
74677;SDS011;63207;56.328;43.994;2022-09-09T03:37:18;1.00;;;0.90;;
74677;SDS011;63207;56.328;43.994;2022-09-09T03:39:45;1.15;;;0.93;;
74677;SDS011;63207;56.328;43.994;2022-09-09T03:42:12;1.52;;;0.93;;
74677;SDS011;63207;56.328;43.994;2022-09-09T03:44:49;1.23;;;1.00;;
74677;SDS011;63207;56.328;43.994;2022-09-09T03:47:21;1.45;;;0.90;;
74677;SDS011;63207;56.328;43.994;2022-09-09T03:49:49;1.30;;;1.02;;
74677;SDS011;63207;56.328;43.994;2022-09-09T03:52:15;1.00;;;0.90;;
74677;SDS011;63207;56.328;43.994;2022-09-09T03:54:42;1.30;;;1.00;;
74677;SDS011;63207;56.328;43.994;2022-09-09T03:57:09;1.10;;;1.00;;
74677;SDS011;63207;56.328;43.994;2022-09-09T03:59:54;1.13;;;1.00;;
74677;SDS011;63207;56.328;43.994;2022-09-09T04:02:20;1.15;;;0.90;;
74677;SDS011;63207;56.328;43.994;2022-09-09T04:04:46;1.30;;;1.10;;
74677;SDS011;63207;56.328;43.994;2022-09-09T04:07:13;1.20;;;1.00;;
74677;SDS011;63207;56.328;43.994;2022-09-09T04:09:39;1.05;;;0.95;;
74677;SDS011;63207;56.328;43.994;2022-09-09T04:12:05;1.00;;;0.90;;
74677;SDS011;63207;56.328;43.994;2022-09-09T04:14:33;1.17;;;1.08;;
74677;SDS011;63207;56.328;43.994;2022-09-09T04:16:59;1.48;;;1.00;;
74677;SDS011;63207;56.328;43.994;2022-09-09T04:19:25;1.50;;;1.10;;
74677;SDS011;63207;56.328;43.994;2022-09-09T04:21:51;1.50;;;1.10;;
74677;SDS011;63207;56.328;43.994;2022-09-09T04:24:20;0.90;;;0.80;;
74677;SDS011;63207;56.328;43.994;2022-09-09T04:26:47;1.17;;;1.00;;
74677;SDS011;63207;56.328;43.994;2022-09-09T04:29:13;1.55;;;1.05;;
74677;SDS011;63207;56.328;43.994;2022-09-09T04:31:39;1.02;;;0.93;;
74677;SDS011;63207;56.328;43.994;2022-09-09T04:34:08;1.08;;;0.98;;
74677;SDS011;63207;56.328;43.994;2022-09-09T04:36:35;1.08;;;0.93;;
74677;SDS011;63207;56.328;43.994;2022-09-09T04:39:04;1.02;;;0.90;;
74677;SDS011;63207;56.328;43.994;2022-09-09T04:41:30;1.30;;;0.98;;
74677;SDS011;63207;56.328;43.994;2022-09-09T04:43:57;0.90;;;0.90;;
74677;SDS011;63207;56.328;43.994;2022-09-09T04:46:24;0.93;;;0.82;;
74677;SDS011;63207;56.328;43.994;2022-09-09T04:48:50;0.95;;;0.90;;
74677;SDS011;63207;56.328;43.994;2022-09-09T04:51:18;1.00;;;0.90;;
74677;SDS011;63207;56.328;43.994;2022-09-09T04:53:46;1.13;;;1.00;;
74677;SDS011;63207;56.328;43.994;2022-09-09T04:56:13;1.20;;;1.00;;
74677;SDS011;63207;56.328;43.994;2022-09-09T04:58:47;1.38;;;1.00;;
74677;SDS011;63207;56.328;43.994;2022-09-09T05:01:15;1.10;;;1.00;;
74677;SDS011;63207;56.328;43.994;2022-09-09T05:04:02;1.08;;;0.98;;
74677;SDS011;63207;56.328;43.994;2022-09-09T05:06:28;0.93;;;0.88;;
74677;SDS011;63207;56.328;43.994;2022-09-09T05:08:58;1.10;;;1.00;;
74677;SDS011;63207;56.328;43.994;2022-09-09T05:11:28;0.88;;;0.88;;
74677;SDS011;63207;56.328;43.994;2022-09-09T05:14:03;1.15;;;0.90;;
74677;SDS011;63207;56.328;43.994;2022-09-09T05:16:30;1.33;;;1.00;;
74677;SDS011;63207;56.328;43.994;2022-09-09T05:18:57;1.30;;;0.90;;
74677;SDS011;63207;56.328;43.994;2022-09-09T05:21:23;1.10;;;0.90;;
74677;SDS011;63207;56.328;43.994;2022-09-09T05:23:51;1.35;;;1.00;;
74677;SDS011;63207;56.328;43.994;2022-09-09T05:26:19;0.95;;;0.95;;
74677;SDS011;63207;56.328;43.994;2022-09-09T05:29:05;1.27;;;0.85;;
74677;SDS011;63207;56.328;43.994;2022-09-09T05:31:31;1.10;;;1.00;;
74677;SDS011;63207;56.328;43.994;2022-09-09T05:34:02;1.10;;;0.90;;
74677;SDS011;63207;56.328;43.994;2022-09-09T05:36:28;1.33;;;1.00;;
74677;SDS011;63207;56.328;43.994;2022-09-09T05:38:55;1.10;;;1.00;;
74677;SDS011;63207;56.328;43.994;2022-09-09T05:41:22;1.00;;;0.90;;
74677;SDS011;63207;56.328;43.994;2022-09-09T05:43:49;1.13;;;1.00;;
74677;SDS011;63207;56.328;43.994;2022-09-09T05:46:17;1.10;;;0.90;;
74677;SDS011;63207;56.328;43.994;2022-09-09T05:48:46;1.60;;;1.05;;
74677;SDS011;63207;56.328;43.994;2022-09-09T05:51:15;1.10;;;1.00;;
74677;SDS011;63207;56.328;43.994;2022-09-09T05:53:43;1.05;;;0.95;;
74677;SDS011;63207;56.328;43.994;2022-09-09T05:56:15;1.30;;;1.00;;
74677;SDS011;63207;56.328;43.994;2022-09-09T05:58:45;1.60;;;1.00;;
74677;SDS011;63207;56.328;43.994;2022-09-09T06:01:23;1.00;;;0.90;;
74677;SDS011;63207;56.328;43.994;2022-09-09T06:03:52;1.20;;;0.90;;
74677;SDS011;63207;56.328;43.994;2022-09-09T06:06:20;1.00;;;0.90;;
74677;SDS011;63207;56.328;43.994;2022-09-09T06:08:49;1.15;;;1.00;;
74677;SDS011;63207;56.328;43.994;2022-09-09T06:11:17;1.00;;;0.88;;
74677;SDS011;63207;56.328;43.994;2022-09-09T06:13:46;1.17;;;1.00;;
74677;SDS011;63207;56.328;43.994;2022-09-09T06:16:14;1.13;;;0.98;;
74677;SDS011;63207;56.328;43.994;2022-09-09T06:19:00;1.35;;;0.95;;
74677;SDS011;63207;56.328;43.994;2022-09-09T06:21:30;1.05;;;0.95;;
74677;SDS011;63207;56.328;43.994;2022-09-09T06:23:59;1.10;;;0.80;;
74677;SDS011;63207;56.328;43.994;2022-09-09T06:26:29;1.30;;;1.00;;
74677;SDS011;63207;56.328;43.994;2022-09-09T06:29:01;1.15;;;1.00;;
74677;SDS011;63207;56.328;43.994;2022-09-09T06:31:29;1.27;;;0.90;;
74677;SDS011;63207;56.328;43.994;2022-09-09T06:34:04;1.10;;;1.00;;
74677;SDS011;63207;56.328;43.994;2022-09-09T06:36:34;1.10;;;1.00;;
74677;SDS011;63207;56.328;43.994;2022-09-09T06:39:02;1.45;;;0.90;;
74677;SDS011;63207;56.328;43.994;2022-09-09T06:41:30;0.88;;;0.80;;
74677;SDS011;63207;56.328;43.994;2022-09-09T06:43:59;1.05;;;0.95;;
74677;SDS011;63207;56.328;43.994;2022-09-09T06:46:40;0.93;;;0.85;;
74677;SDS011;63207;56.328;43.994;2022-09-09T06:49:10;1.20;;;1.10;;
74677;SDS011;63207;56.328;43.994;2022-09-09T06:51:36;1.20;;;0.90;;
74677;SDS011;63207;56.328;43.994;2022-09-09T06:54:08;1.10;;;1.00;;
74677;SDS011;63207;56.328;43.994;2022-09-09T06:56:35;1.00;;;0.90;;
74677;SDS011;63207;56.328;43.994;2022-09-09T06:59:08;1.00;;;0.90;;
74677;SDS011;63207;56.328;43.994;2022-09-09T07:01:36;1.05;;;0.90;;
74677;SDS011;63207;56.328;43.994;2022-09-09T07:04:09;1.13;;;0.95;;
74677;SDS011;63207;56.328;43.994;2022-09-09T07:06:42;1.10;;;1.00;;
74677;SDS011;63207;56.328;43.994;2022-09-09T07:09:14;1.33;;;0.90;;
74677;SDS011;63207;56.328;43.994;2022-09-09T07:11:48;1.20;;;1.10;;
74677;SDS011;63207;56.328;43.994;2022-09-09T07:14:18;1.30;;;0.90;;
74677;SDS011;63207;56.328;43.994;2022-09-09T07:16:48;1.48;;;1.08;;
74677;SDS011;63207;56.328;43.994;2022-09-09T07:19:15;1.05;;;0.95;;
74677;SDS011;63207;56.328;43.994;2022-09-09T07:21:43;1.05;;;0.95;;
74677;SDS011;63207;56.328;43.994;2022-09-09T07:24:12;0.90;;;0.90;;
74677;SDS011;63207;56.328;43.994;2022-09-09T07:26:40;1.48;;;1.00;;
74677;SDS011;63207;56.328;43.994;2022-09-09T07:29:06;1.20;;;1.00;;
74677;SDS011;63207;56.328;43.994;2022-09-09T07:31:34;1.17;;;0.93;;
74677;SDS011;63207;56.328;43.994;2022-09-09T07:34:09;1.10;;;1.00;;
74677;SDS011;63207;56.328;43.994;2022-09-09T07:36:36;1.00;;;0.90;;
74677;SDS011;63207;56.328;43.994;2022-09-09T07:39:06;1.17;;;1.00;;
74677;SDS011;63207;56.328;43.994;2022-09-09T07:41:52;0.95;;;0.95;;
74677;SDS011;63207;56.328;43.994;2022-09-09T07:44:22;0.98;;;0.85;;
74677;SDS011;63207;56.328;43.994;2022-09-09T07:47:03;1.08;;;0.90;;
74677;SDS011;63207;56.328;43.994;2022-09-09T07:49:34;1.38;;;1.00;;
74677;SDS011;63207;56.328;43.994;2022-09-09T07:52:02;1.17;;;0.90;;
74677;SDS011;63207;56.328;43.994;2022-09-09T07:54:29;1.30;;;1.02;;
74677;SDS011;63207;56.328;43.994;2022-09-09T07:56:56;0.85;;;0.82;;
74677;SDS011;63207;56.328;43.994;2022-09-09T07:59:26;2.38;;;1.10;;
74677;SDS011;63207;56.328;43.994;2022-09-09T08:02:13;1.00;;;0.90;;
74677;SDS011;63207;56.328;43.994;2022-09-09T08:04:40;1.63;;;1.05;;
74677;SDS011;63207;56.328;43.994;2022-09-09T08:07:06;1.70;;;1.00;;
74677;SDS011;63207;56.328;43.994;2022-09-09T08:09:42;0.80;;;0.80;;
74677;SDS011;63207;56.328;43.994;2022-09-09T08:12:28;1.10;;;0.90;;
74677;SDS011;63207;56.328;43.994;2022-09-09T08:14:55;1.05;;;0.95;;
74677;SDS011;63207;56.328;43.994;2022-09-09T08:17:24;1.88;;;1.00;;
74677;SDS011;63207;56.328;43.994;2022-09-09T08:19:50;1.30;;;1.00;;
74677;SDS011;63207;56.328;43.994;2022-09-09T08:22:22;0.90;;;0.80;;
74677;SDS011;63207;56.328;43.994;2022-09-09T08:24:50;1.75;;;1.08;;
74677;SDS011;63207;56.328;43.994;2022-09-09T08:27:16;1.52;;;1.10;;
74677;SDS011;63207;56.328;43.994;2022-09-09T08:29:42;0.98;;;0.90;;
74677;SDS011;63207;56.328;43.994;2022-09-09T08:32:08;1.27;;;0.90;;
74677;SDS011;63207;56.328;43.994;2022-09-09T08:34:35;1.25;;;1.02;;
74677;SDS011;63207;56.328;43.994;2022-09-09T08:37:07;1.30;;;1.00;;
74677;SDS011;63207;56.328;43.994;2022-09-09T08:39:37;1.10;;;1.00;;
74677;SDS011;63207;56.328;43.994;2022-09-09T08:55:56;1.35;;;1.00;;
74677;SDS011;63207;56.328;43.994;2022-09-09T08:58:34;1.33;;;1.02;;
74677;SDS011;63207;56.328;43.994;2022-09-09T09:03:44;1.20;;;1.10;;
74677;SDS011;63207;56.328;43.994;2022-09-09T09:11:52;1.10;;;1.00;;
74677;SDS011;63207;56.328;43.994;2022-09-09T09:14:21;1.17;;;1.08;;
74677;SDS011;63207;56.328;43.994;2022-09-09T09:16:56;1.10;;;1.00;;
74677;SDS011;63207;56.328;43.994;2022-09-09T09:19:27;1.40;;;1.10;;
74677;SDS011;63207;56.328;43.994;2022-09-09T09:24:33;1.13;;;0.98;;
74677;SDS011;63207;56.328;43.994;2022-09-09T09:27:16;0.95;;;0.90;;
74677;SDS011;63207;56.328;43.994;2022-09-09T09:29:54;1.50;;;0.82;;
74677;SDS011;63207;56.328;43.994;2022-09-09T09:32:23;1.27;;;1.00;;
74677;SDS011;63207;56.328;43.994;2022-09-09T09:34:53;1.10;;;1.00;;
74677;SDS011;63207;56.328;43.994;2022-09-09T09:37:29;1.25;;;0.90;;
74677;SDS011;63207;56.328;43.994;2022-09-09T09:40:09;1.20;;;1.00;;
74677;SDS011;63207;56.328;43.994;2022-09-09T09:42:47;1.42;;;1.00;;
74677;SDS011;63207;56.328;43.994;2022-09-09T09:48:15;1.08;;;0.98;;
74677;SDS011;63207;56.328;43.994;2022-09-09T09:53:37;1.05;;;0.95;;
74677;SDS011;63207;56.328;43.994;2022-09-09T09:56:06;1.52;;;1.00;;
74677;SDS011;63207;56.328;43.994;2022-09-09T09:58:47;1.00;;;0.90;;
74677;SDS011;63207;56.328;43.994;2022-09-09T10:01:22;1.02;;;0.90;;
74677;SDS011;63207;56.328;43.994;2022-09-09T10:04:19;1.00;;;0.90;;
74677;SDS011;63207;56.328;43.994;2022-09-09T10:06:50;1.20;;;1.10;;
74677;SDS011;63207;56.328;43.994;2022-09-09T10:09:34;1.23;;;0.98;;
74677;SDS011;63207;56.328;43.994;2022-09-09T10:20:32;1.10;;;1.00;;
74677;SDS011;63207;56.328;43.994;2022-09-09T10:25:51;1.13;;;0.95;;
74677;SDS011;63207;56.328;43.994;2022-09-09T10:28:52;1.20;;;1.00;;
74677;SDS011;63207;56.328;43.994;2022-09-09T10:31:39;1.10;;;1.00;;
74677;SDS011;63207;56.328;43.994;2022-09-09T10:43:01;0.93;;;0.88;;
74677;SDS011;63207;56.328;43.994;2022-09-09T10:48:22;1.10;;;1.00;;
74677;SDS011;63207;56.328;43.994;2022-09-09T10:51:12;0.90;;;0.82;;
74677;SDS011;63207;56.328;43.994;2022-09-09T10:56:12;0.85;;;0.85;;
74677;SDS011;63207;56.328;43.994;2022-09-09T10:58:52;1.25;;;1.10;;
74677;SDS011;63207;56.328;43.994;2022-09-09T11:04:24;1.50;;;1.00;;
74677;SDS011;63207;56.328;43.994;2022-09-09T11:06:57;1.20;;;1.00;;
74677;SDS011;63207;56.328;43.994;2022-09-09T11:09:31;1.40;;;1.10;;
74677;SDS011;63207;56.328;43.994;2022-09-09T11:12:20;1.05;;;0.90;;
74677;SDS011;63207;56.328;43.994;2022-09-09T11:14:57;0.95;;;0.90;;
74677;SDS011;63207;56.328;43.994;2022-09-09T11:17:33;1.00;;;0.90;;
74677;SDS011;63207;56.328;43.994;2022-09-09T11:20:06;2.22;;;1.10;;
74677;SDS011;63207;56.328;43.994;2022-09-09T11:22:39;1.10;;;1.00;;
74677;SDS011;63207;56.328;43.994;2022-09-09T11:25:16;1.13;;;1.00;;
74677;SDS011;63207;56.328;43.994;2022-09-09T11:42:05;1.35;;;1.20;;
74677;SDS011;63207;56.328;43.994;2022-09-09T11:44:51;3.90;;;1.60;;
74677;SDS011;63207;56.328;43.994;2022-09-09T11:47:29;2.80;;;1.45;;
74677;SDS011;63207;56.328;43.994;2022-09-09T11:52:41;4.18;;;1.75;;
74677;SDS011;63207;56.328;43.994;2022-09-09T11:55:33;3.78;;;1.63;;
74677;SDS011;63207;56.328;43.994;2022-09-09T11:57:59;2.80;;;1.42;;
74677;SDS011;63207;56.328;43.994;2022-09-09T12:00:34;3.65;;;1.50;;
74677;SDS011;63207;56.328;43.994;2022-09-09T12:03:03;2.85;;;1.35;;
74677;SDS011;63207;56.328;43.994;2022-09-09T12:05:37;2.13;;;1.52;;
74677;SDS011;63207;56.328;43.994;2022-09-09T12:08:09;2.80;;;1.50;;
74677;SDS011;63207;56.328;43.994;2022-09-09T12:10:40;2.00;;;1.50;;
74677;SDS011;63207;56.328;43.994;2022-09-09T12:13:19;2.25;;;1.40;;
74677;SDS011;63207;56.328;43.994;2022-09-09T12:15:49;2.25;;;1.30;;
74677;SDS011;63207;56.328;43.994;2022-09-09T12:21:15;1.60;;;1.20;;
74677;SDS011;63207;56.328;43.994;2022-09-09T12:29:03;2.25;;;1.55;;
74677;SDS011;63207;56.328;43.994;2022-09-09T12:32:23;2.95;;;1.60;;
74677;SDS011;63207;56.328;43.994;2022-09-09T12:39:57;2.95;;;1.50;;
74677;SDS011;63207;56.328;43.994;2022-09-09T12:42:25;2.22;;;1.13;;
74677;SDS011;63207;56.328;43.994;2022-09-09T12:44:53;2.58;;;1.33;;
74677;SDS011;63207;56.328;43.994;2022-09-09T12:47:21;3.17;;;1.20;;
74677;SDS011;63207;56.328;43.994;2022-09-09T12:50:33;2.25;;;1.38;;
74677;SDS011;63207;56.328;43.994;2022-09-09T12:53:35;4.05;;;1.35;;
74677;SDS011;63207;56.328;43.994;2022-09-09T12:56:04;2.90;;;1.48;;
74677;SDS011;63207;56.328;43.994;2022-09-09T12:58:45;2.67;;;1.33;;
74677;SDS011;63207;56.328;43.994;2022-09-09T13:01:22;2.53;;;1.42;;
74677;SDS011;63207;56.328;43.994;2022-09-09T13:04:00;3.13;;;1.40;;
74677;SDS011;63207;56.328;43.994;2022-09-09T13:06:28;2.47;;;1.23;;
74677;SDS011;63207;56.328;43.994;2022-09-09T13:09:13;5.68;;;1.40;;
74677;SDS011;63207;56.328;43.994;2022-09-09T13:11:42;2.35;;;1.30;;
74677;SDS011;63207;56.328;43.994;2022-09-09T13:14:55;3.10;;;1.30;;
74677;SDS011;63207;56.328;43.994;2022-09-09T13:17:20;1.80;;;1.30;;
74677;SDS011;63207;56.328;43.994;2022-09-09T13:19:52;2.75;;;1.60;;
74677;SDS011;63207;56.328;43.994;2022-09-09T13:22:38;2.10;;;1.30;;
74677;SDS011;63207;56.328;43.994;2022-09-09T13:25:27;2.58;;;1.50;;
74677;SDS011;63207;56.328;43.994;2022-09-09T13:27:58;3.20;;;1.50;;
74677;SDS011;63207;56.328;43.994;2022-09-09T13:30:34;4.13;;;1.40;;
74677;SDS011;63207;56.328;43.994;2022-09-09T13:35:34;3.53;;;1.50;;
74677;SDS011;63207;56.328;43.994;2022-09-09T13:38:15;4.32;;;1.40;;
74677;SDS011;63207;56.328;43.994;2022-09-09T13:43:37;3.35;;;1.60;;
74677;SDS011;63207;56.328;43.994;2022-09-09T13:51:37;2.58;;;1.30;;
74677;SDS011;63207;56.328;43.994;2022-09-09T13:54:09;2.80;;;1.30;;
74677;SDS011;63207;56.328;43.994;2022-09-09T13:56:37;3.90;;;1.30;;
74677;SDS011;63207;56.328;43.994;2022-09-09T13:59:05;2.85;;;1.38;;
74677;SDS011;63207;56.328;43.994;2022-09-09T14:01:37;2.47;;;1.10;;
74677;SDS011;63207;56.328;43.994;2022-09-09T14:04:03;4.03;;;1.25;;
74677;SDS011;63207;56.328;43.994;2022-09-09T14:06:31;3.15;;;1.10;;
74677;SDS011;63207;56.328;43.994;2022-09-09T14:09:04;5.40;;;1.20;;
74677;SDS011;63207;56.328;43.994;2022-09-09T14:11:31;4.80;;;1.30;;
74677;SDS011;63207;56.328;43.994;2022-09-09T14:13:57;3.90;;;1.08;;
74677;SDS011;63207;56.328;43.994;2022-09-09T14:16:23;4.15;;;1.20;;
74677;SDS011;63207;56.328;43.994;2022-09-09T14:18:49;2.95;;;1.27;;
74677;SDS011;63207;56.328;43.994;2022-09-09T14:21:16;2.70;;;1.10;;
74677;SDS011;63207;56.328;43.994;2022-09-09T14:23:41;2.60;;;1.13;;
74677;SDS011;63207;56.328;43.994;2022-09-09T14:26:07;3.10;;;1.30;;
74677;SDS011;63207;56.328;43.994;2022-09-09T14:28:34;2.30;;;1.00;;
74677;SDS011;63207;56.328;43.994;2022-09-09T14:31:01;4.40;;;1.15;;
74677;SDS011;63207;56.328;43.994;2022-09-09T14:33:29;2.05;;;1.10;;
74677;SDS011;63207;56.328;43.994;2022-09-09T14:35:56;2.33;;;1.10;;
74677;SDS011;63207;56.328;43.994;2022-09-09T14:38:23;5.28;;;1.55;;
74677;SDS011;63207;56.328;43.994;2022-09-09T14:40:50;4.10;;;1.10;;
74677;SDS011;63207;56.328;43.994;2022-09-09T14:43:16;3.10;;;1.20;;
74677;SDS011;63207;56.328;43.994;2022-09-09T14:45:41;4.32;;;1.20;;
74677;SDS011;63207;56.328;43.994;2022-09-09T14:48:08;2.78;;;1.25;;
74677;SDS011;63207;56.328;43.994;2022-09-09T14:50:34;2.42;;;1.10;;
74677;SDS011;63207;56.328;43.994;2022-09-09T14:53:05;4.22;;;1.40;;
74677;SDS011;63207;56.328;43.994;2022-09-09T14:55:32;2.38;;;1.10;;
74677;SDS011;63207;56.328;43.994;2022-09-09T14:57:58;6.28;;;1.25;;
74677;SDS011;63207;56.328;43.994;2022-09-09T15:00:24;2.92;;;1.63;;
74677;SDS011;63207;56.328;43.994;2022-09-09T15:02:53;2.38;;;1.08;;
74677;SDS011;63207;56.328;43.994;2022-09-09T15:05:20;4.32;;;1.38;;
74677;SDS011;63207;56.328;43.994;2022-09-09T15:07:46;2.47;;;1.23;;
74677;SDS011;63207;56.328;43.994;2022-09-09T15:10:13;3.10;;;1.42;;
74677;SDS011;63207;56.328;43.994;2022-09-09T15:12:40;3.05;;;1.10;;
74677;SDS011;63207;56.328;43.994;2022-09-09T15:15:07;3.20;;;1.27;;
74677;SDS011;63207;56.328;43.994;2022-09-09T15:17:33;3.85;;;1.10;;
74677;SDS011;63207;56.328;43.994;2022-09-09T15:20:02;3.05;;;1.20;;
74677;SDS011;63207;56.328;43.994;2022-09-09T15:22:30;5.10;;;1.20;;
74677;SDS011;63207;56.328;43.994;2022-09-09T15:25:15;2.00;;;1.27;;
74677;SDS011;63207;56.328;43.994;2022-09-09T15:27:43;3.55;;;1.10;;
74677;SDS011;63207;56.328;43.994;2022-09-09T15:30:09;2.13;;;1.02;;
74677;SDS011;63207;56.328;43.994;2022-09-09T15:32:35;1.30;;;1.10;;
74677;SDS011;63207;56.328;43.994;2022-09-09T15:35:01;1.75;;;1.08;;
74677;SDS011;63207;56.328;43.994;2022-09-09T15:37:28;3.50;;;1.20;;
74677;SDS011;63207;56.328;43.994;2022-09-09T15:39:53;2.35;;;1.13;;
74677;SDS011;63207;56.328;43.994;2022-09-09T15:42:19;3.17;;;1.17;;
74677;SDS011;63207;56.328;43.994;2022-09-09T15:44:45;5.85;;;1.05;;
74677;SDS011;63207;56.328;43.994;2022-09-09T15:47:11;3.25;;;1.20;;
74677;SDS011;63207;56.328;43.994;2022-09-09T15:49:38;5.90;;;1.20;;
74677;SDS011;63207;56.328;43.994;2022-09-09T15:52:04;4.38;;;1.23;;
74677;SDS011;63207;56.328;43.994;2022-09-09T15:54:31;3.88;;;1.33;;
74677;SDS011;63207;56.328;43.994;2022-09-09T15:57:00;5.40;;;1.70;;
74677;SDS011;63207;56.328;43.994;2022-09-09T15:59:28;4.38;;;1.38;;
74677;SDS011;63207;56.328;43.994;2022-09-09T16:01:55;4.72;;;1.60;;
74677;SDS011;63207;56.328;43.994;2022-09-09T16:04:23;4.28;;;1.23;;
74677;SDS011;63207;56.328;43.994;2022-09-09T16:06:50;5.20;;;1.50;;
74677;SDS011;63207;56.328;43.994;2022-09-09T16:09:17;5.38;;;1.27;;
74677;SDS011;63207;56.328;43.994;2022-09-09T16:11:43;5.03;;;1.30;;
74677;SDS011;63207;56.328;43.994;2022-09-09T16:14:09;5.25;;;1.20;;
74677;SDS011;63207;56.328;43.994;2022-09-09T16:16:36;2.83;;;1.20;;
74677;SDS011;63207;56.328;43.994;2022-09-09T16:19:03;4.03;;;1.40;;
74677;SDS011;63207;56.328;43.994;2022-09-09T16:21:41;3.53;;;1.13;;
74677;SDS011;63207;56.328;43.994;2022-09-09T16:24:09;3.95;;;1.13;;
74677;SDS011;63207;56.328;43.994;2022-09-09T16:26:38;3.75;;;1.10;;
74677;SDS011;63207;56.328;43.994;2022-09-09T16:29:05;3.60;;;1.20;;
74677;SDS011;63207;56.328;43.994;2022-09-09T16:31:31;2.22;;;1.10;;
74677;SDS011;63207;56.328;43.994;2022-09-09T16:33:57;4.32;;;1.20;;
74677;SDS011;63207;56.328;43.994;2022-09-09T16:36:24;1.73;;;1.00;;
74677;SDS011;63207;56.328;43.994;2022-09-09T16:38:52;4.10;;;1.15;;
74677;SDS011;63207;56.328;43.994;2022-09-09T16:41:39;2.83;;;1.10;;
74677;SDS011;63207;56.328;43.994;2022-09-09T16:44:07;3.95;;;1.13;;
74677;SDS011;63207;56.328;43.994;2022-09-09T16:46:35;3.83;;;1.25;;
74677;SDS011;63207;56.328;43.994;2022-09-09T16:49:06;3.13;;;1.20;;
74677;SDS011;63207;56.328;43.994;2022-09-09T16:51:35;2.75;;;1.08;;
74677;SDS011;63207;56.328;43.994;2022-09-09T16:54:03;3.83;;;1.25;;
74677;SDS011;63207;56.328;43.994;2022-09-09T16:56:32;3.72;;;1.20;;
74677;SDS011;63207;56.328;43.994;2022-09-09T16:59:06;2.90;;;1.05;;
74677;SDS011;63207;56.328;43.994;2022-09-09T17:01:38;1.30;;;0.88;;
74677;SDS011;63207;56.328;43.994;2022-09-09T17:04:07;2.92;;;1.00;;
74677;SDS011;63207;56.328;43.994;2022-09-09T17:06:34;2.03;;;1.00;;
74677;SDS011;63207;56.328;43.994;2022-09-09T17:09:03;2.30;;;0.90;;
74677;SDS011;63207;56.328;43.994;2022-09-09T17:11:31;2.17;;;0.90;;